sensor_id;sensor_type;location;lat;lon;timestamp;pressure;altitude;pressure_sealevel;temperature;humidity
23616;BME280;11985;49.404;7.734;2023-08-06T00:02:36;96405.59;;;13.53;100.00
23616;BME280;11985;49.404;7.734;2023-08-06T00:07:39;96406.72;;;13.57;100.00
23616;BME280;11985;49.404;7.734;2023-08-06T00:12:41;96413.13;;;13.61;100.00
23616;BME280;11985;49.404;7.734;2023-08-06T00:17:43;96407.28;;;13.59;100.00
23616;BME280;11985;49.404;7.734;2023-08-06T00:22:46;96411.03;;;13.63;100.00
23616;BME280;11985;49.404;7.734;2023-08-06T00:27:47;96400.03;;;13.71;100.00
23616;BME280;11985;49.404;7.734;2023-08-06T00:32:49;96397.19;;;13.78;100.00
23616;BME280;11985;49.404;7.734;2023-08-06T00:37:52;96380.00;;;13.81;100.00
23616;BME280;11985;49.404;7.734;2023-08-06T00:42:53;96370.53;;;13.85;100.00
23616;BME280;11985;49.404;7.734;2023-08-06T00:47:55;96357.06;;;13.86;100.00
23616;BME280;11985;49.404;7.734;2023-08-06T00:52:59;96351.56;;;13.93;100.00
23616;BME280;11985;49.404;7.734;2023-08-06T00:58:01;96357.91;;;13.92;100.00
23616;BME280;11985;49.404;7.734;2023-08-06T01:03:03;96352.56;;;13.87;100.00
23616;BME280;11985;49.404;7.734;2023-08-06T01:08:15;96362.84;;;13.83;100.00
23616;BME280;11985;49.404;7.734;2023-08-06T01:13:24;96356.66;;;13.72;100.00
23616;BME280;11985;49.404;7.734;2023-08-06T01:18:30;96364.72;;;13.61;100.00
23616;BME280;11985;49.404;7.734;2023-08-06T01:23:33;96359.53;;;13.49;100.00
23616;BME280;11985;49.404;7.734;2023-08-06T01:28:41;96364.66;;;13.34;100.00
23616;BME280;11985;49.404;7.734;2023-08-06T01:33:46;96360.34;;;13.28;100.00
23616;BME280;11985;49.404;7.734;2023-08-06T01:38:51;96355.19;;;13.21;100.00
23616;BME280;11985;49.404;7.734;2023-08-06T01:43:53;96350.13;;;13.19;100.00
23616;BME280;11985;49.404;7.734;2023-08-06T01:48:54;96346.94;;;13.17;100.00
23616;BME280;11985;49.404;7.734;2023-08-06T01:53:57;96340.53;;;13.13;100.00
23616;BME280;11985;49.404;7.734;2023-08-06T01:58:59;96333.91;;;13.11;100.00
23616;BME280;11985;49.404;7.734;2023-08-06T02:04:01;96332.00;;;13.06;100.00
23616;BME280;11985;49.404;7.734;2023-08-06T02:09:04;96319.03;;;13.05;100.00
23616;BME280;11985;49.404;7.734;2023-08-06T02:14:05;96328.28;;;13.07;100.00
23616;BME280;11985;49.404;7.734;2023-08-06T02:19:07;96321.59;;;13.00;100.00
23616;BME280;11985;49.404;7.734;2023-08-06T02:24:10;96319.59;;;12.90;100.00
23616;BME280;11985;49.404;7.734;2023-08-06T02:29:12;96310.22;;;12.82;100.00
23616;BME280;11985;49.404;7.734;2023-08-06T02:34:14;96310.09;;;12.72;100.00
23616;BME280;11985;49.404;7.734;2023-08-06T02:39:17;96296.25;;;12.65;100.00
23616;BME280;11985;49.404;7.734;2023-08-06T02:44:19;96297.00;;;12.60;100.00
23616;BME280;11985;49.404;7.734;2023-08-06T02:49:20;96294.81;;;12.57;100.00
23616;BME280;11985;49.404;7.734;2023-08-06T02:54:23;96305.63;;;12.56;100.00
23616;BME280;11985;49.404;7.734;2023-08-06T02:59:25;96316.34;;;12.49;100.00
23616;BME280;11985;49.404;7.734;2023-08-06T03:04:27;96300.66;;;12.42;100.00
23616;BME280;11985;49.404;7.734;2023-08-06T03:09:30;96305.66;;;12.39;100.00
23616;BME280;11985;49.404;7.734;2023-08-06T03:14:31;96300.28;;;12.34;100.00
23616;BME280;11985;49.404;7.734;2023-08-06T03:19:33;96296.97;;;12.27;100.00
23616;BME280;11985;49.404;7.734;2023-08-06T03:24:36;96296.97;;;12.27;100.00
23616;BME280;11985;49.404;7.734;2023-08-06T03:29:37;96283.47;;;12.23;100.00
23616;BME280;11985;49.404;7.734;2023-08-06T03:34:39;96281.09;;;12.22;100.00
23616;BME280;11985;49.404;7.734;2023-08-06T03:39:42;96280.75;;;12.18;100.00
23616;BME280;11985;49.404;7.734;2023-08-06T03:44:44;96296.84;;;12.17;100.00
23616;BME280;11985;49.404;7.734;2023-08-06T03:49:45;96285.69;;;12.14;100.00
23616;BME280;11985;49.404;7.734;2023-08-06T03:54:48;96281.97;;;12.10;100.00
23616;BME280;11985;49.404;7.734;2023-08-06T03:59:50;96284.81;;;12.09;100.00
23616;BME280;11985;49.404;7.734;2023-08-06T04:04:51;96290.81;;;12.04;100.00
23616;BME280;11985;49.404;7.734;2023-08-06T04:09:57;96289.22;;;12.03;100.00
23616;BME280;11985;49.404;7.734;2023-08-06T04:15:00;96283.84;;;11.98;100.00
23616;BME280;11985;49.404;7.734;2023-08-06T04:20:02;96287.69;;;11.91;100.00
23616;BME280;11985;49.404;7.734;2023-08-06T04:25:06;96283.91;;;11.86;100.00
23616;BME280;11985;49.404;7.734;2023-08-06T04:30:08;96291.16;;;11.79;100.00
23616;BME280;11985;49.404;7.734;2023-08-06T04:35:12;96285.53;;;11.76;100.00
23616;BME280;11985;49.404;7.734;2023-08-06T04:40:15;96286.56;;;11.75;100.00
23616;BME280;11985;49.404;7.734;2023-08-06T04:45:16;96288.25;;;11.81;100.00
23616;BME280;11985;49.404;7.734;2023-08-06T04:50:19;96281.63;;;11.78;100.00
23616;BME280;11985;49.404;7.734;2023-08-06T04:55:22;96292.53;;;11.82;100.00
23616;BME280;11985;49.404;7.734;2023-08-06T05:00:23;96281.41;;;11.80;100.00
23616;BME280;11985;49.404;7.734;2023-08-06T05:05:25;96284.50;;;11.77;100.00
23616;BME280;11985;49.404;7.734;2023-08-06T05:10:28;96279.81;;;11.79;100.00
23616;BME280;11985;49.404;7.734;2023-08-06T05:15:30;96278.19;;;11.78;100.00
23616;BME280;11985;49.404;7.734;2023-08-06T05:20:35;96288.25;;;11.81;100.00
23616;BME280;11985;49.404;7.734;2023-08-06T05:25:38;96291.94;;;11.80;100.00
23616;BME280;11985;49.404;7.734;2023-08-06T05:30:40;96285.19;;;11.84;100.00
23616;BME280;11985;49.404;7.734;2023-08-06T05:35:42;96295.44;;;11.97;100.00
23616;BME280;11985;49.404;7.734;2023-08-06T05:40:45;96299.22;;;12.01;100.00
23616;BME280;11985;49.404;7.734;2023-08-06T05:45:49;96297.22;;;12.08;100.00
23616;BME280;11985;49.404;7.734;2023-08-06T05:50:51;96299.31;;;12.06;100.00
23616;BME280;11985;49.404;7.734;2023-08-06T05:55:54;96295.88;;;12.06;100.00
23616;BME280;11985;49.404;7.734;2023-08-06T06:00:56;96297.78;;;12.10;100.00
23616;BME280;11985;49.404;7.734;2023-08-06T06:05:58;96303.53;;;12.07;100.00
23616;BME280;11985;49.404;7.734;2023-08-06T06:11:03;96304.88;;;12.10;100.00
23616;BME280;11985;49.404;7.734;2023-08-06T06:16:05;96306.72;;;12.09;100.00
23616;BME280;11985;49.404;7.734;2023-08-06T06:21:06;96305.63;;;12.05;100.00
23616;BME280;11985;49.404;7.734;2023-08-06T06:26:10;96312.19;;;12.20;100.00
23616;BME280;11985;49.404;7.734;2023-08-06T06:31:11;96317.00;;;12.23;100.00
23616;BME280;11985;49.404;7.734;2023-08-06T06:36:13;96314.44;;;12.28;100.00
23616;BME280;11985;49.404;7.734;2023-08-06T06:41:17;96325.47;;;12.25;100.00
23616;BME280;11985;49.404;7.734;2023-08-06T06:46:19;96326.50;;;12.24;100.00
23616;BME280;11985;49.404;7.734;2023-08-06T06:51:20;96326.84;;;12.27;100.00
23616;BME280;11985;49.404;7.734;2023-08-06T06:56:24;96328.38;;;12.40;100.00
23616;BME280;11985;49.404;7.734;2023-08-06T07:01:25;96335.88;;;12.48;100.00
23616;BME280;11985;49.404;7.734;2023-08-06T07:06:28;96327.56;;;12.56;100.00
23616;BME280;11985;49.404;7.734;2023-08-06T07:11:31;96330.28;;;12.61;100.00
23616;BME280;11985;49.404;7.734;2023-08-06T07:16:33;96326.94;;;12.66;100.00
23616;BME280;11985;49.404;7.734;2023-08-06T07:21:36;96342.91;;;12.76;100.00
23616;BME280;11985;49.404;7.734;2023-08-06T07:26:39;96339.38;;;12.71;100.00
23616;BME280;11985;49.404;7.734;2023-08-06T07:31:41;96345.72;;;12.69;100.00
23616;BME280;11985;49.404;7.734;2023-08-06T07:36:43;96342.59;;;12.73;100.00
23616;BME280;11985;49.404;7.734;2023-08-06T07:41:47;96351.25;;;12.85;100.00
23616;BME280;11985;49.404;7.734;2023-08-06T07:46:48;96354.03;;;12.95;100.00
23616;BME280;11985;49.404;7.734;2023-08-06T07:51:50;96355.22;;;12.87;100.00
23616;BME280;11985;49.404;7.734;2023-08-06T07:56:53;96359.72;;;12.87;100.00
23616;BME280;11985;49.404;7.734;2023-08-06T08:01:55;96355.22;;;12.87;100.00
23616;BME280;11985;49.404;7.734;2023-08-06T08:06:56;96357.31;;;12.85;100.00
23616;BME280;11985;49.404;7.734;2023-08-06T08:11:59;96355.00;;;12.89;100.00
23616;BME280;11985;49.404;7.734;2023-08-06T08:17:03;96362.59;;;13.02;100.00
23616;BME280;11985;49.404;7.734;2023-08-06T08:22:05;96360.41;;;13.33;100.00
23616;BME280;11985;49.404;7.734;2023-08-06T08:27:08;96357.00;;;13.37;100.00
23616;BME280;11985;49.404;7.734;2023-08-06T08:32:09;96352.41;;;13.28;100.00
23616;BME280;11985;49.404;7.734;2023-08-06T08:37:11;96360.56;;;13.09;100.00
23616;BME280;11985;49.404;7.734;2023-08-06T08:42:15;96358.91;;;12.86;100.00
23616;BME280;11985;49.404;7.734;2023-08-06T08:47:17;96364.47;;;12.68;100.00
23616;BME280;11985;49.404;7.734;2023-08-06T08:52:18;96363.75;;;12.56;100.00
23616;BME280;11985;49.404;7.734;2023-08-06T08:57:23;96379.91;;;12.59;100.00
23616;BME280;11985;49.404;7.734;2023-08-06T09:02:25;96381.81;;;12.47;100.00
23616;BME280;11985;49.404;7.734;2023-08-06T09:07:29;96377.81;;;12.45;100.00
23616;BME280;11985;49.404;7.734;2023-08-06T09:12:34;96385.50;;;12.46;100.00
23616;BME280;11985;49.404;7.734;2023-08-06T09:17:36;96383.91;;;12.45;100.00
23616;BME280;11985;49.404;7.734;2023-08-06T09:22:38;96406.81;;;12.56;100.00
23616;BME280;11985;49.404;7.734;2023-08-06T09:27:46;96404.00;;;12.63;100.00
23616;BME280;11985;49.404;7.734;2023-08-06T09:32:49;96416.88;;;12.59;100.00
23616;BME280;11985;49.404;7.734;2023-08-06T09:37:51;96431.13;;;12.58;100.00
23616;BME280;11985;49.404;7.734;2023-08-06T09:42:55;96444.34;;;12.58;100.00
23616;BME280;11985;49.404;7.734;2023-08-06T09:47:57;96440.09;;;12.57;100.00
23616;BME280;11985;49.404;7.734;2023-08-06T09:52:59;96437.56;;;12.62;100.00
23616;BME280;11985;49.404;7.734;2023-08-06T09:58:02;96461.94;;;12.53;100.00
23616;BME280;11985;49.404;7.734;2023-08-06T10:03:04;96467.94;;;12.48;100.00
23616;BME280;11985;49.404;7.734;2023-08-06T10:08:07;96477.38;;;12.44;100.00
23616;BME280;11985;49.404;7.734;2023-08-06T10:13:11;96478.22;;;12.61;100.00
23616;BME280;11985;49.404;7.734;2023-08-06T10:18:15;96484.47;;;12.72;100.00
23616;BME280;11985;49.404;7.734;2023-08-06T10:23:33;96491.97;;;12.63;100.00
23616;BME280;11985;49.404;7.734;2023-08-06T10:28:38;96490.94;;;12.64;100.00
23616;BME280;11985;49.404;7.734;2023-08-06T10:33:41;96492.47;;;12.60;100.00
23616;BME280;11985;49.404;7.734;2023-08-06T10:38:44;96506.78;;;12.64;100.00
23616;BME280;11985;49.404;7.734;2023-08-06T10:43:48;96527.38;;;12.62;100.00
23616;BME280;11985;49.404;7.734;2023-08-06T10:48:50;96523.88;;;12.74;100.00
23616;BME280;11985;49.404;7.734;2023-08-06T10:53:52;96539.41;;;12.87;100.00
23616;BME280;11985;49.404;7.734;2023-08-06T10:58:56;96533.34;;;13.03;100.00
23616;BME280;11985;49.404;7.734;2023-08-06T11:04:01;96532.44;;;13.26;100.00
23616;BME280;11985;49.404;7.734;2023-08-06T11:09:05;96545.59;;;13.38;100.00
23616;BME280;11985;49.404;7.734;2023-08-06T11:14:14;96550.06;;;13.54;100.00
23616;BME280;11985;49.404;7.734;2023-08-06T11:19:16;96564.09;;;13.71;100.00
23616;BME280;11985;49.404;7.734;2023-08-06T11:24:19;96566.94;;;13.87;100.00
23616;BME280;11985;49.404;7.734;2023-08-06T11:29:22;96583.06;;;14.02;100.00
23616;BME280;11985;49.404;7.734;2023-08-06T11:34:24;96584.19;;;14.06;100.00
23616;BME280;11985;49.404;7.734;2023-08-06T11:39:26;96587.53;;;14.18;100.00
23616;BME280;11985;49.404;7.734;2023-08-06T11:44:32;96612.47;;;13.50;100.00
23616;BME280;11985;49.404;7.734;2023-08-06T11:49:38;96615.00;;;13.00;100.00
23616;BME280;11985;49.404;7.734;2023-08-06T11:54:39;96615.03;;;12.88;100.00
23616;BME280;11985;49.404;7.734;2023-08-06T11:59:42;96615.78;;;12.72;100.00
23616;BME280;11985;49.404;7.734;2023-08-06T12:05:00;96624.16;;;12.68;100.00
23616;BME280;11985;49.404;7.734;2023-08-06T12:10:03;96625.66;;;12.64;100.00
23616;BME280;11985;49.404;7.734;2023-08-06T12:15:07;96636.19;;;12.76;100.00
23616;BME280;11985;49.404;7.734;2023-08-06T12:20:09;96640.84;;;12.98;100.00
23616;BME280;11985;49.404;7.734;2023-08-06T12:25:12;96648.25;;;13.12;100.00
23616;BME280;11985;49.404;7.734;2023-08-06T12:30:15;96648.81;;;13.14;100.00
23616;BME280;11985;49.404;7.734;2023-08-06T12:35:16;96656.28;;;13.17;100.00
23616;BME280;11985;49.404;7.734;2023-08-06T12:40:18;96656.19;;;13.12;100.00
23616;BME280;11985;49.404;7.734;2023-08-06T12:45:22;96661.56;;;13.29;100.00
23616;BME280;11985;49.404;7.734;2023-08-06T12:50:23;96682.25;;;13.20;100.00
23616;BME280;11985;49.404;7.734;2023-08-06T12:55:25;96675.03;;;13.28;100.00
23616;BME280;11985;49.404;7.734;2023-08-06T13:00:28;96681.78;;;13.52;100.00
23616;BME280;11985;49.404;7.734;2023-08-06T13:05:29;96687.03;;;13.64;100.00
23616;BME280;11985;49.404;7.734;2023-08-06T13:10:31;96686.66;;;13.72;100.00
23616;BME280;11985;49.404;7.734;2023-08-06T13:15:34;96695.06;;;14.03;100.00
23616;BME280;11985;49.404;7.734;2023-08-06T13:20:38;96691.66;;;14.41;100.00
23616;BME280;11985;49.404;7.734;2023-08-06T13:25:40;96692.13;;;14.38;100.00
23616;BME280;11985;49.404;7.734;2023-08-06T13:30:43;96687.47;;;14.62;100.00
23616;BME280;11985;49.404;7.734;2023-08-06T13:35:45;96689.69;;;14.92;100.00
23616;BME280;11985;49.404;7.734;2023-08-06T13:40:47;96691.97;;;15.27;100.00
23616;BME280;11985;49.404;7.734;2023-08-06T13:45:50;96692.53;;;15.56;100.00
23616;BME280;11985;49.404;7.734;2023-08-06T13:50:52;96686.16;;;15.08;100.00
23616;BME280;11985;49.404;7.734;2023-08-06T13:55:53;96708.28;;;14.53;100.00
23616;BME280;11985;49.404;7.734;2023-08-06T14:00:56;96724.22;;;13.57;100.00
23616;BME280;11985;49.404;7.734;2023-08-06T14:05:58;96730.88;;;13.31;100.00
23616;BME280;11985;49.404;7.734;2023-08-06T14:10:59;96742.09;;;13.22;100.00
23616;BME280;11985;49.404;7.734;2023-08-06T14:16:03;96746.19;;;13.17;100.00
23616;BME280;11985;49.404;7.734;2023-08-06T14:21:04;96760.66;;;13.27;100.00
23616;BME280;11985;49.404;7.734;2023-08-06T14:26:08;96773.69;;;13.28;100.00
23616;BME280;11985;49.404;7.734;2023-08-06T14:31:12;96771.13;;;13.10;100.00
23616;BME280;11985;49.404;7.734;2023-08-06T14:36:14;96781.06;;;12.91;100.00
23616;BME280;11985;49.404;7.734;2023-08-06T14:41:17;96782.34;;;12.77;100.00
23616;BME280;11985;49.404;7.734;2023-08-06T14:46:20;96794.31;;;12.67;100.00
23616;BME280;11985;49.404;7.734;2023-08-06T14:51:21;96806.25;;;12.58;100.00
23616;BME280;11985;49.404;7.734;2023-08-06T14:56:23;96808.88;;;12.58;100.00
23616;BME280;11985;49.404;7.734;2023-08-06T15:01:26;96811.75;;;12.68;100.00
23616;BME280;11985;49.404;7.734;2023-08-06T15:06:28;96811.75;;;12.68;100.00
23616;BME280;11985;49.404;7.734;2023-08-06T15:11:29;96823.25;;;12.62;100.00
23616;BME280;11985;49.404;7.734;2023-08-06T15:16:32;96823.44;;;12.49;100.00
23616;BME280;11985;49.404;7.734;2023-08-06T15:21:35;96832.88;;;12.33;100.00
23616;BME280;11985;49.404;7.734;2023-08-06T15:26:37;96833.44;;;12.35;100.00
23616;BME280;11985;49.404;7.734;2023-08-06T15:31:40;96843.88;;;12.42;100.00
23616;BME280;11985;49.404;7.734;2023-08-06T15:36:42;96859.44;;;12.50;100.00
23616;BME280;11985;49.404;7.734;2023-08-06T15:41:43;96848.75;;;12.68;100.00
23616;BME280;11985;49.404;7.734;2023-08-06T15:46:46;96862.09;;;12.74;100.00
23616;BME280;11985;49.404;7.734;2023-08-06T15:51:48;96861.72;;;12.70;100.00
23616;BME280;11985;49.404;7.734;2023-08-06T15:56:50;96862.31;;;12.72;100.00
23616;BME280;11985;49.404;7.734;2023-08-06T16:01:53;96874.38;;;12.56;100.00
23616;BME280;11985;49.404;7.734;2023-08-06T16:06:58;96890.09;;;12.51;100.00
23616;BME280;11985;49.404;7.734;2023-08-06T16:11:59;96891.59;;;12.71;100.00
23616;BME280;11985;49.404;7.734;2023-08-06T16:17:03;96886.69;;;12.86;100.00
23616;BME280;11985;49.404;7.734;2023-08-06T16:22:05;96882.75;;;12.77;100.00
23616;BME280;11985;49.404;7.734;2023-08-06T16:27:06;96892.31;;;12.78;100.00
23616;BME280;11985;49.404;7.734;2023-08-06T16:32:09;96904.81;;;12.71;100.00
23616;BME280;11985;49.404;7.734;2023-08-06T16:37:11;96899.53;;;12.71;100.00
23616;BME280;11985;49.404;7.734;2023-08-06T16:42:13;96908.22;;;12.59;100.00
23616;BME280;11985;49.404;7.734;2023-08-06T16:47:16;96918.53;;;12.49;100.00
23616;BME280;11985;49.404;7.734;2023-08-06T16:52:17;96922.19;;;12.36;100.00
23616;BME280;11985;49.404;7.734;2023-08-06T16:57:19;96936.13;;;12.13;100.00
23616;BME280;11985;49.404;7.734;2023-08-06T17:02:22;96944.34;;;12.05;100.00
23616;BME280;11985;49.404;7.734;2023-08-06T17:07:24;96942.94;;;12.03;100.00
23616;BME280;11985;49.404;7.734;2023-08-06T17:12:25;96949.63;;;12.05;100.00
23616;BME280;11985;49.404;7.734;2023-08-06T17:17:28;96942.28;;;12.07;100.00
23616;BME280;11985;49.404;7.734;2023-08-06T17:22:30;96941.84;;;12.10;100.00
23616;BME280;11985;49.404;7.734;2023-08-06T17:27:32;96962.88;;;12.17;100.00
23616;BME280;11985;49.404;7.734;2023-08-06T17:32:35;96959.25;;;12.30;100.00
23616;BME280;11985;49.404;7.734;2023-08-06T17:37:36;96964.69;;;12.35;100.00
23616;BME280;11985;49.404;7.734;2023-08-06T17:42:38;96957.06;;;12.27;100.00
23616;BME280;11985;49.404;7.734;2023-08-06T17:47:41;96957.94;;;12.21;100.00
23616;BME280;11985;49.404;7.734;2023-08-06T17:52:42;96974.69;;;12.14;100.00
23616;BME280;11985;49.404;7.734;2023-08-06T17:57:44;96970.44;;;12.13;100.00
23616;BME280;11985;49.404;7.734;2023-08-06T18:02:47;96972.78;;;12.03;100.00
23616;BME280;11985;49.404;7.734;2023-08-06T18:07:48;96975.88;;;12.00;100.00
23616;BME280;11985;49.404;7.734;2023-08-06T18:12:50;96980.00;;;11.96;100.00
23616;BME280;11985;49.404;7.734;2023-08-06T18:17:53;96990.47;;;11.84;100.00
23616;BME280;11985;49.404;7.734;2023-08-06T18:22:55;97003.66;;;11.84;100.00
23616;BME280;11985;49.404;7.734;2023-08-06T18:27:56;97000.63;;;11.81;100.00
23616;BME280;11985;49.404;7.734;2023-08-06T18:32:59;97001.28;;;11.76;100.00
23616;BME280;11985;49.404;7.734;2023-08-06T18:38:03;97009.66;;;11.73;100.00
23616;BME280;11985;49.404;7.734;2023-08-06T18:43:04;97011.19;;;11.81;100.00
23616;BME280;11985;49.404;7.734;2023-08-06T18:48:13;97017.09;;;11.83;100.00
23616;BME280;11985;49.404;7.734;2023-08-06T18:53:18;97013.97;;;11.68;100.00
23616;BME280;11985;49.404;7.734;2023-08-06T18:58:20;97017.09;;;11.58;100.00
23616;BME280;11985;49.404;7.734;2023-08-06T19:03:23;97027.25;;;11.54;100.00
23616;BME280;11985;49.404;7.734;2023-08-06T19:08:25;97030.94;;;11.53;100.00
23616;BME280;11985;49.404;7.734;2023-08-06T19:13:26;97031.06;;;11.40;100.00
23616;BME280;11985;49.404;7.734;2023-08-06T19:18:29;97037.63;;;11.31;100.00
23616;BME280;11985;49.404;7.734;2023-08-06T19:23:31;97051.09;;;11.23;100.00
23616;BME280;11985;49.404;7.734;2023-08-06T19:28:32;97044.22;;;11.15;100.00
23616;BME280;11985;49.404;7.734;2023-08-06T19:33:36;97048.16;;;11.06;100.00
23616;BME280;11985;49.404;7.734;2023-08-06T19:38:37;97055.69;;;11.02;100.00
23616;BME280;11985;49.404;7.734;2023-08-06T19:43:39;97054.88;;;11.02;100.00
23616;BME280;11985;49.404;7.734;2023-08-06T19:48:42;97067.06;;;10.96;100.00
23616;BME280;11985;49.404;7.734;2023-08-06T19:53:44;97068.91;;;10.96;100.00
23616;BME280;11985;49.404;7.734;2023-08-06T19:58:45;97061.81;;;10.96;100.00
23616;BME280;11985;49.404;7.734;2023-08-06T20:03:50;97071.78;;;10.94;100.00
23616;BME280;11985;49.404;7.734;2023-08-06T20:08:51;97069.53;;;10.91;100.00
23616;BME280;11985;49.404;7.734;2023-08-06T20:13:53;97072.41;;;10.90;100.00
23616;BME280;11985;49.404;7.734;2023-08-06T20:18:56;97070.41;;;10.85;100.00
23616;BME280;11985;49.404;7.734;2023-08-06T20:23:58;97076.34;;;10.74;100.00
23616;BME280;11985;49.404;7.734;2023-08-06T20:29:00;97079.81;;;10.68;100.00
23616;BME280;11985;49.404;7.734;2023-08-06T20:34:03;97083.03;;;10.70;100.00
23616;BME280;11985;49.404;7.734;2023-08-06T20:39:05;97083.06;;;10.63;100.00
23616;BME280;11985;49.404;7.734;2023-08-06T20:44:07;97087.97;;;10.53;100.00
23616;BME280;11985;49.404;7.734;2023-08-06T20:49:10;97079.09;;;10.47;100.00
23616;BME280;11985;49.404;7.734;2023-08-06T20:54:11;97086.78;;;10.49;100.00
23616;BME280;11985;49.404;7.734;2023-08-06T20:59:13;97092.47;;;10.46;100.00
23616;BME280;11985;49.404;7.734;2023-08-06T21:04:16;97103.00;;;10.46;100.00
23616;BME280;11985;49.404;7.734;2023-08-06T21:09:17;97100.16;;;10.47;100.00
23616;BME280;11985;49.404;7.734;2023-08-06T21:14:19;97104.03;;;10.45;100.00
23616;BME280;11985;49.404;7.734;2023-08-06T21:19:22;97109.47;;;10.43;100.00
23616;BME280;11985;49.404;7.734;2023-08-06T21:24:23;97118.41;;;10.42;100.00
23616;BME280;11985;49.404;7.734;2023-08-06T21:29:25;97120.22;;;10.42;100.00
23616;BME280;11985;49.404;7.734;2023-08-06T21:34:28;97126.09;;;10.37;100.00
23616;BME280;11985;49.404;7.734;2023-08-06T21:39:29;97125.72;;;10.40;100.00
23616;BME280;11985;49.404;7.734;2023-08-06T21:44:31;97127.31;;;10.41;100.00
23616;BME280;11985;49.404;7.734;2023-08-06T21:49:34;97135.00;;;10.43;100.00
23616;BME280;11985;49.404;7.734;2023-08-06T21:54:36;97130.97;;;10.40;100.00
23616;BME280;11985;49.404;7.734;2023-08-06T21:59:37;97133.41;;;10.35;100.00
23616;BME280;11985;49.404;7.734;2023-08-06T22:04:40;97135.84;;;10.30;100.00
23616;BME280;11985;49.404;7.734;2023-08-06T22:09:42;97133.41;;;10.35;100.00
23616;BME280;11985;49.404;7.734;2023-08-06T22:14:43;97129.16;;;10.34;100.00
23616;BME280;11985;49.404;7.734;2023-08-06T22:19:46;97129.34;;;10.32;100.00
23616;BME280;11985;49.404;7.734;2023-08-06T22:24:48;97137.06;;;10.34;100.00
23616;BME280;11985;49.404;7.734;2023-08-06T22:29:49;97144.53;;;10.37;100.00
23616;BME280;11985;49.404;7.734;2023-08-06T22:34:55;97146.38;;;10.37;100.00
23616;BME280;11985;49.404;7.734;2023-08-06T22:39:56;97146.97;;;10.32;100.00
23616;BME280;11985;49.404;7.734;2023-08-06T22:44:59;97144.97;;;10.34;100.00
23616;BME280;11985;49.404;7.734;2023-08-06T22:50:02;97143.13;;;10.35;100.00
23616;BME280;11985;49.404;7.734;2023-08-06T22:55:05;97145.16;;;10.32;100.00
23616;BME280;11985;49.404;7.734;2023-08-06T23:00:08;97155.47;;;10.41;100.00
23616;BME280;11985;49.404;7.734;2023-08-06T23:05:11;97157.09;;;10.35;100.00
23616;BME280;11985;49.404;7.734;2023-08-06T23:10:12;97152.66;;;10.36;100.00
23616;BME280;11985;49.404;7.734;2023-08-06T23:15:14;97165.00;;;10.35;100.00
23616;BME280;11985;49.404;7.734;2023-08-06T23:20:17;97163.59;;;10.32;100.00
23616;BME280;11985;49.404;7.734;2023-08-06T23:25:19;97166.22;;;10.32;100.00
23616;BME280;11985;49.404;7.734;2023-08-06T23:30:20;97167.44;;;10.30;100.00
23616;BME280;11985;49.404;7.734;2023-08-06T23:35:23;97169.06;;;10.31;100.00
23616;BME280;11985;49.404;7.734;2023-08-06T23:40:25;97167.84;;;10.27;100.00
23616;BME280;11985;49.404;7.734;2023-08-06T23:45:26;97177.38;;;10.28;100.00
23616;BME280;11985;49.404;7.734;2023-08-06T23:50:30;97171.31;;;10.27;100.00
23616;BME280;11985;49.404;7.734;2023-08-06T23:55:32;97168.88;;;10.26;100.00
